EA3BIN-13 Weather Reports


Display with metric or nautical units.
time (UTC)temp
F
wind
direction
speed
MPH
gust
MPH
rain 1hr
in
rain 24hr
in
rain mn
in
humidity
%
barometer
mb
20240301154722 82 0.0 0.0 0.00 0.00 0.00 19 1007.6
20240301153721 82 0.0 0.0 0.00 0.00 0.00 22 1007.7
20240301152726 80 0.0 0.0 0.00 0.00 0.00 23 1007.9
20240301151805 83 0.0 0.0 0.00 0.00 0.00 25 1007.6
20240301150721 81 0.0 0.0 0.00 0.00 0.00 26 1007.8
20240301145721 61 0.0 0.0 0.00 0.00 0.00 48 1010.0
20240301144721 60 0.0 0.0 0.00 0.00 0.00 44 1009.7
20240301143721 61 0.0 0.0 0.00 0.00 0.00 49 1009.8
20240301142721 61 0.0 0.0 0.00 0.00 0.00 36 1009.7
20240301141722 61 0.0 0.0 0.00 0.00 0.00 44 1009.8
20240301140721 60 0.0 0.0 0.00 0.00 0.00 40 1010.0
20240301135721 60 0.0 0.0 0.00 0.00 0.00 46 1010.0
20240301134721 60 0.0 0.0 0.00 0.00 0.00 37 1010.0
20240301133722 60 0.0 0.0 0.00 0.00 0.00 44 1010.1
20240301132721 60 0.0 0.0 0.00 0.00 0.00 48 1010.1
20240301131732 60 0.0 0.0 0.00 0.00 0.00 42 1010.2
20240301130722 59 0.0 0.0 0.00 0.00 0.00 43 1010.3
20240301125722 59 0.0 0.0 0.00 0.00 0.00 40 1010.4
20240301124722 58 0.0 0.0 0.00 0.00 0.00 39 1010.7
20240301123721 58 0.0 0.0 0.00 0.00 0.00 43 1010.9
20240301122721 57 0.0 0.0 0.00 0.00 0.00 38 1011.2
20240301121721 57 0.0 0.0 0.00 0.00 0.00 44 1011.2
20240301120721 57 0.0 0.0 0.00 0.00 0.00 46 1011.3
20240301115721 56 0.0 0.0 0.00 0.00 0.00 55 1011.4
20240301114727 56 0.0 0.0 0.00 0.00 0.00 46 1011.7
20240301113721 55 0.0 0.0 0.00 0.00 0.00 49 1011.8
20240301112722 55 0.0 0.0 0.00 0.00 0.00 56 1012.0
20240301111722 56 0.0 0.0 0.00 0.00 0.00 57 1012.1
20240301110722 55 0.0 0.0 0.00 0.00 0.00 57 1012.1
20240301105722 53 0.0 0.0 0.00 0.00 0.00 60 1012.3
20240301104721 52 0.0 0.0 0.00 0.00 0.00 61 1012.4
20240301103721 52 0.0 0.0 0.00 0.00 0.00 63 1012.6
20240301102721 51 0.0 0.0 0.00 0.00 0.00 64 1012.8
20240301101721 51 0.0 0.0 0.00 0.00 0.00 63 1012.9
20240301100722 50 0.0 0.0 0.00 0.00 0.00 66 1013.1
20240301095722 49 0.0 0.0 0.00 0.00 0.00 68 1012.9
20240301094727 49 0.0 0.0 0.00 0.00 0.00 71 1013.1
20240301093722 48 0.0 0.0 0.00 0.00 0.00 74 1013.2
20240301092738 48 0.0 0.0 0.00 0.00 0.00 82 1013.3
20240301091721 47 0.0 0.0 0.00 0.00 0.00 79 1013.2
20240301090722 47 0.0 0.0 0.00 0.00 0.00 83 1013.2
20240301085722 46 0.0 0.0 0.00 0.00 0.00 86 1013.3
20240301084727 46 0.0 0.0 0.00 0.00 0.00 91 1013.3
20240301083722 45 0.0 0.0 0.00 0.00 0.00 95 1013.4
20240301082722 44 0.0 0.0 0.00 0.00 0.00 95 1013.5
20240301081749 43 0.0 0.0 0.00 0.00 0.00 93 1013.5
20240301080722 43 0.0 0.0 0.00 0.00 0.00 96 1013.5
20240301075727 42 0.0 0.0 0.00 0.00 0.00 10 1013.5
20240301074722 42 0.0 0.0 0.00 0.00 0.00 10 1013.6
20240301073727 42 0.0 0.0 0.00 0.00 0.00 10 1013.6
20240301072722 42 0.0 0.0 0.00 0.00 0.00 10 1013.4
20240301071722 41 0.0 0.0 0.00 0.00 0.00 10 1013.3
20240301070721 41 0.0 0.0 0.00 0.00 0.00 10 1013.1
20240301065727 42 0.0 0.0 0.00 0.00 0.00 10 1012.9
20240301064722 41 0.0 0.0 0.00 0.00 0.00 10 1012.9
20240301063721 41 0.0 0.0 0.00 0.00 0.00 10 1012.8
20240301062727 41 0.0 0.0 0.00 0.00 0.00 10 1012.7
20240301061722 42 0.0 0.0 0.00 0.00 0.00 10 1012.5
20240301060722 42 0.0 0.0 0.00 0.00 0.00 10 1012.2
20240301055722 42 0.0 0.0 0.00 0.00 0.00 10 1012.1
20240301054721 42 0.0 0.0 0.00 0.00 0.00 10 1012.2
20240301053722 43 0.0 0.0 0.00 0.00 0.00 10 1011.9
20240301052722 43 0.0 0.0 0.00 0.00 0.00 10 1011.8
20240301051721 43 0.0 0.0 0.00 0.00 0.00 10 1011.7
20240301050722 44 0.0 0.0 0.00 0.00 0.00 10 1011.5
20240301045722 44 0.0 0.0 0.00 0.00 0.00 10 1011.4
20240301044722 44 0.0 0.0 0.00 0.00 0.00 10 1011.2
20240301043727 44 0.0 0.0 0.00 0.00 0.00 10 1011.2
20240301042722 44 0.0 0.0 0.00 0.00 0.00 10 1011.1
20240301041727 44 0.0 0.0 0.00 0.00 0.00 10 1011.0
20240301040722 44 0.0 0.0 0.00 0.00 0.00 10 1011.1
20240301035722 44 0.0 0.0 0.00 0.00 0.00 10 1010.9
20240301034727 44 0.0 0.0 0.00 0.00 0.00 10 1010.8
20240301033722 44 0.0 0.0 0.00 0.00 0.00 10 1010.7
20240301032722 44 0.0 0.0 0.00 0.00 0.00 10 1010.8
20240301031722 45 0.0 0.0 0.00 0.00 0.00 10 1010.7
20240301030721 45 0.0 0.0 0.00 0.00 0.00 10 1010.9
20240301025722 45 0.0 0.0 0.00 0.00 0.00 10 1011.0
20240301024727 45 0.0 0.0 0.00 0.00 0.00 10 1010.7
20240301023722 45 0.0 0.0 0.00 0.00 0.00 10 1010.8
20240301022722 45 0.0 0.0 0.00 0.00 0.00 10 1010.7
20240301021722 44 0.0 0.0 0.00 0.00 0.00 10 1010.9
20240301020743 45 0.0 0.0 0.00 0.00 0.00 10 1011.0
20240301015722 44 0.0 0.0 0.00 0.00 0.00 10 1011.2
20240301014722 44 0.0 0.0 0.00 0.00 0.00 10 1011.2
20240301013722 45 0.0 0.0 0.00 0.00 0.00 10 1011.2
20240301012722 45 0.0 0.0 0.00 0.00 0.00 10 1011.1
20240301011722 45 0.0 0.0 0.00 0.00 0.00 10 1011.1
20240301010722 45 0.0 0.0 0.00 0.00 0.00 10 1010.9
20240301005722 45 0.0 0.0 0.00 0.00 0.00 10 1011.1
20240301004722 45 0.0 0.0 0.00 0.00 0.00 10 1011.0
20240301003722 46 0.0 0.0 0.00 0.00 0.00 10 1010.7
20240301002722 46 0.0 0.0 0.00 0.00 0.00 10 1010.8
20240301001721 46 0.0 0.0 0.00 0.00 0.00 10 1011.0
20240301000722 47 0.0 0.0 0.00 0.00 0.00 10 1011.1
20240229235722 47 0.0 0.0 0.00 0.00 0.00 10 1011.2
20240229234722 48 0.0 0.0 0.00 0.00 0.00 10 1011.0
20240229233722 49 0.0 0.0 0.00 0.00 0.00 10 1010.8
20240229232722 48 0.0 0.0 0.00 0.00 0.00 10 1010.8
20240229231722 49 0.0 0.0 0.00 0.00 0.00 10 1010.6
20240229230722 50 0.0 0.0 0.00 0.00 0.00 10 1010.4
20240229225722 51 0.0 0.0 0.00 0.00 0.00 10 1010.4
20240229224721 50 0.0 0.0 0.00 0.00 0.00 10 1010.5
20240229223722 50 0.0 0.0 0.00 0.00 0.00 10 1010.3
20240229222722 52 0.0 0.0 0.00 0.00 0.00 98 1010.0
20240229221722 52 0.0 0.0 0.00 0.00 0.00 86 1009.9
20240229220722 53 0.0 0.0 0.00 0.00 0.00 76 1009.9
20240229215722 52 0.0 0.0 0.00 0.00 0.00 73 1010.1
20240229214722 53 0.0 0.0 0.00 0.00 0.00 70 1010.2
20240229213722 53 0.0 0.0 0.00 0.00 0.00 73 1010.4
20240229212722 52 0.0 0.0 0.00 0.00 0.00 71 1010.4
20240229211722 52 0.0 0.0 0.00 0.00 0.00 70 1010.4
20240229210722 53 0.0 0.0 0.00 0.00 0.00 69 1010.4
20240229205722 52 0.0 0.0 0.00 0.00 0.00 66 1010.5
20240229204722 52 0.0 0.0 0.00 0.00 0.00 63 1010.3
20240229203722 52 0.0 0.0 0.00 0.00 0.00 60 1010.5
20240229202722 52 0.0 0.0 0.00 0.00 0.00 59 1010.5
20240229201722 52 0.0 0.0 0.00 0.00 0.00 59 1010.4
20240229200722 52 0.0 0.0 0.00 0.00 0.00 58 1010.4
20240229195722 53 0.0 0.0 0.00 0.00 0.00 57 1010.3
20240229194722 54 0.0 0.0 0.00 0.00 0.00 59 1010.2
20240229193727 53 0.0 0.0 0.00 0.00 0.00 57 1010.2
20240229192722 53 0.0 0.0 0.00 0.00 0.00 57 1010.3
20240229191722 54 0.0 0.0 0.00 0.00 0.00 56 1010.2
20240229190727 54 0.0 0.0 0.00 0.00 0.00 55 1010.3
20240229185727 54 0.0 0.0 0.00 0.00 0.00 58 1010.4
20240229184722 55 0.0 0.0 0.00 0.00 0.00 57 1010.3
20240229183722 55 0.0 0.0 0.00 0.00 0.00 56 1010.3
20240229182759 54 0.0 0.0 0.00 0.00 0.00 55 1010.3
20240229181722 54 0.0 0.0 0.00 0.00 0.00 51 1010.3
20240229180722 54 0.0 0.0 0.00 0.00 0.00 50 1010.4
20240229175722 55 0.0 0.0 0.00 0.00 0.00 47 1010.1
20240229174733 55 0.0 0.0 0.00 0.00 0.00 46 1010.0
20240229173722 56 0.0 0.0 0.00 0.00 0.00 43 1010.0
20240229172722 57 0.0 0.0 0.00 0.00 0.00 42 1009.9
20240229171722 58 0.0 0.0 0.00 0.00 0.00 44 1009.7
20240229170722 59 0.0 0.0 0.00 0.00 0.00 44 1009.5
20240229165727 60 0.0 0.0 0.00 0.00 0.00 40 1009.5
20240229164727 62 0.0 0.0 0.00 0.00 0.00 38 1009.4
20240229163722 72 0.0 0.0 0.00 0.00 0.00 29 1008.4
20240229162722 76 0.0 0.0 0.00 0.00 0.00 23 1008.0
20240229161722 78 0.0 0.0 0.00 0.00 0.00 23 1007.8
20240229160732 70 0.0 0.0 0.00 0.00 0.00 27 1008.8
20240229155722 85 0.0 0.0 0.00 0.00 0.00 18 1007.4